Terminal Aerodrome Forecast
Issued by NWS Medford, OR

Home | Current Version | Previous Version | Text Only | Print | Product List | Glossary On
Versions: 1 2 3 4 5 6 7 8 9 10 11 12 13 14 15 16 17 18 19 20 21
000
FTUS46 KMFR 211755
TAFMFR
TAF
KMFR 211755Z 2118/2218 36003KT 3SM FU SKC
     FM220200 34009KT P6SM BKN050
     FM220300 36004KT P6SM SCT050
     FM221200 00000KT 6SM HZ SKC=

USA.gov is the U.S. government's official web portal to all federal, state and local government web resources and services.